Time;durP1;ratioP1;P1;durP2;ratioP2;P2;SDS_P1;SDS_P2;PMS_P1;PMS_P2;Temp;Humidity;BMP_temperature;BMP_pressure;BME280_temperature;BME280_humidity;BME280_pressure;Samples;Min_cycle;Max_cycle;Signal;HPM_P1;HPM_P2
2023/10/13 00:00:41;;;;;;;3.42;1.50;;;11.80;99.90;;;;;;5074376;28;20024;-78
2023/10/13 00:03:14;;;;;;;3.70;2.05;;;11.80;99.90;;;;;;5074341;28;20485;-77
2023/10/13 00:05:41;;;;;;;5.32;1.67;;;11.80;99.90;;;;;;5074141;28;20468;-78
2023/10/13 00:08:09;;;;;;;2.83;2.15;;;11.80;99.90;;;;;;5056010;28;20020;-78
2023/10/13 00:10:35;;;;;;;8.07;1.40;;;11.90;99.90;;;;;;5073642;28;20024;-78
2023/10/13 00:13:15;;;;;;;3.22;1.17;;;11.90;99.90;;;;;;5074252;28;20425;-77
2023/10/13 00:15:56;;;;;;;3.55;1.45;;;11.90;99.90;;;;;;5077884;28;20039;-78
2023/10/13 00:18:23;;;;;;;5.43;1.92;;;12.00;99.90;;;;;;5060539;28;20029;-79
2023/10/13 00:20:49;;;;;;;5.70;1.88;;;12.00;99.90;;;;;;5059770;28;20031;-78
2023/10/13 00:23:20;;;;;;;3.42;1.63;;;12.00;99.90;;;;;;5066726;28;20118;-78
2023/10/13 00:25:50;;;;;;;20.17;1.58;;;12.00;99.90;;;;;;5097024;28;20123;-78
2023/10/13 00:28:23;;;;;;;;;;;12.00;99.90;;;;;;5097425;28;20020;-78
2023/10/13 00:30:52;;;;;;;4.22;1.70;;;11.90;99.90;;;;;;5098588;28;19948;-78
2023/10/13 00:33:22;;;;;;;3.13;1.88;;;11.90;99.90;;;;;;5098453;28;20387;-78
2023/10/13 00:35:51;;;;;;;6.35;1.98;;;11.90;99.90;;;;;;5098331;28;20362;-78
2023/10/13 00:38:19;;;;;;;4.30;1.92;;;11.90;99.90;;;;;;5098596;28;20491;-78
2023/10/13 00:40:51;;;;;;;3.75;1.92;;;11.90;99.90;;;;;;5097125;28;20031;-79
2023/10/13 00:46:08;;;;;;;2.33;1.60;;;12.00;99.90;;;;;;5098193;28;20020;-79
2023/10/13 00:48:42;;;;;;;2.10;1.95;;;11.90;99.90;;;;;;5096235;28;20024;-79
2023/10/13 00:51:16;;;;;;;2.53;1.50;;;11.90;99.90;;;;;;5097603;28;20027;-78
2023/10/13 00:53:44;;;;;;;5.57;1.77;;;11.90;99.90;;;;;;5097771;28;20020;-78
2023/10/13 00:56:18;;;;;;;3.30;1.27;;;11.90;99.90;;;;;;5098024;28;20448;-78
2023/10/13 00:58:52;;;;;;;1.58;1.25;;;12.00;99.90;;;;;;5096870;28;20035;-79
2023/10/13 01:01:18;;;;;;;3.15;1.88;;;12.00;99.90;;;;;;5096825;28;20086;-78
2023/10/13 01:03:49;;;;;;;3.08;2.10;;;12.00;99.90;;;;;;5096528;28;20030;-77
2023/10/13 01:06:17;;;;;;;3.80;1.30;;;12.10;99.90;;;;;;5096481;28;20024;-78
2023/10/13 01:08:50;;;;;;;2.92;1.60;;;12.10;99.90;;;;;;5096224;28;20362;-77
2023/10/13 01:11:19;;;;;;;2.80;1.33;;;12.10;99.90;;;;;;5096302;28;20028;-78
2023/10/13 01:13:50;;;;;;;3.15;1.45;;;12.00;99.90;;;;;;5096807;28;20051;-79
2023/10/13 01:16:17;;;;;;;1.23;1.15;;;11.90;99.90;;;;;;5096419;28;20040;-79
2023/10/13 01:18:49;;;;;;;3.55;1.38;;;11.80;99.90;;;;;;5097928;28;20120;-79
2023/10/13 01:21:20;;;;;;;2.25;1.77;;;11.80;99.90;;;;;;5096602;28;20034;-78
2023/10/13 01:23:47;;;;;;;1.60;1.35;;;11.80;99.90;;;;;;5096584;28;20503;-78
2023/10/13 01:26:21;;;;;;;4.40;1.90;;;11.60;99.90;;;;;;5095657;28;20369;-79
2023/10/13 01:28:48;;;;;;;2.60;1.80;;;11.70;99.90;;;;;;5098264;28;20464;-79
2023/10/13 01:31:24;;;;;;;4.82;1.58;;;11.70;99.90;;;;;;5098306;28;20020;-78
2023/10/13 01:33:53;;;;;;;4.68;2.10;;;11.60;99.90;;;;;;5097894;28;20030;-79
2023/10/13 01:36:22;;;;;;;6.97;1.48;;;11.60;99.90;;;;;;5098197;28;20032;-79
2023/10/13 01:38:49;;;;;;;4.20;1.58;;;11.60;99.90;;;;;;5098523;28;20024;-79
2023/10/13 01:41:17;;;;;;;5.40;1.70;;;11.50;99.90;;;;;;5098029;28;20031;-79
2023/10/13 01:43:42;;;;;;;3.10;1.65;;;11.50;99.90;;;;;;5095933;28;20115;-78
2023/10/13 01:46:09;;;;;;;11.88;1.95;;;11.40;99.90;;;;;;5096861;28;20060;-78
2023/10/13 01:48:40;;;;;;;3.38;1.65;;;11.30;99.90;;;;;;5097283;28;20012;-79
2023/10/13 01:51:09;;;;;;;2.25;1.60;;;11.20;99.90;;;;;;5097470;28;20031;-78
2023/10/13 01:53:38;;;;;;;;;;;11.10;99.90;;;;;;5097038;28;20021;-78
2023/10/13 01:56:09;;;;;;;3.20;1.75;;;11.00;99.90;;;;;;5095935;28;20334;-77
2023/10/13 01:58:36;;;;;;;2.90;1.85;;;10.90;99.90;;;;;;5094734;28;20032;-77
2023/10/13 02:01:04;;;;;;;6.80;1.60;;;10.80;99.90;;;;;;5095401;28;20066;-78
2023/10/13 02:03:30;;;;;;;8.98;1.58;;;10.70;99.90;;;;;;5094283;28;20020;-78
2023/10/13 02:05:58;;;;;;;4.18;2.47;;;10.60;99.90;;;;;;5094101;28;20030;-78
2023/10/13 02:08:24;;;;;;;4.07;2.15;;;10.70;99.90;;;;;;5095584;28;20024;-78
2023/10/13 02:10:51;;;;;;;1.50;1.40;;;10.60;99.90;;;;;;5095413;28;20055;-78
2023/10/13 02:13:18;;;;;;;3.47;1.98;;;10.50;99.90;;;;;;5095423;28;20024;-78
2023/10/13 02:15:48;;;;;;;4.20;1.55;;;10.40;99.90;;;;;;5094036;28;20032;-78
2023/10/13 02:18:21;;;;;;;3.22;1.95;;;10.40;99.90;;;;;;5095096;28;20380;-78
2023/10/13 02:20:54;;;;;;;4.65;1.98;;;10.40;99.90;;;;;;5095072;28;20362;-78
2023/10/13 02:23:20;;;;;;;2.88;1.75;;;10.30;99.90;;;;;;5093622;28;20046;-78
2023/10/13 02:25:46;;;;;;;9.93;3.45;;;10.30;99.90;;;;;;5093941;28;20035;-78
2023/10/13 02:28:21;;;;;;;3.70;1.80;;;10.20;99.90;;;;;;5093393;28;20024;-78
2023/10/13 02:30:50;;;;;;;7.20;1.90;;;10.20;99.90;;;;;;5095265;28;20069;-78
2023/10/13 02:33:21;;;;;;;4.30;1.87;;;10.20;99.90;;;;;;5093570;28;20384;-78
2023/10/13 02:35:55;;;;;;;3.72;2.00;;;10.10;99.90;;;;;;5093284;28;20040;-78
2023/10/13 02:38:57;;;;;;;2.70;1.58;;;10.00;99.90;;;;;;5093252;28;20025;-78
2023/10/13 02:41:28;;;;;;;4.07;1.92;;;10.00;99.90;;;;;;5092552;28;20044;-78
2023/10/13 02:43:55;;;;;;;2.13;1.63;;;9.90;99.90;;;;;;5094705;28;20042;-78
2023/10/13 02:46:22;;;;;;;19.30;2.25;;;9.80;99.90;;;;;;5093503;28;20373;-77
2023/10/13 02:48:58;;;;;;;7.95;1.45;;;9.70;99.90;;;;;;5094731;28;20465;-78
2023/10/13 02:51:35;;;;;;;5.60;2.35;;;9.70;99.90;;;;;;5093186;28;20070;-78
2023/10/13 02:54:10;;;;;;;3.55;2.40;;;9.70;99.90;;;;;;5093081;28;20031;-78
2023/10/13 02:56:36;;;;;;;6.70;2.03;;;9.70;99.90;;;;;;5093033;28;20606;-77
2023/10/13 02:59:05;;;;;;;6.80;3.42;;;9.60;99.90;;;;;;5093080;28;20085;-77
2023/10/13 03:01:35;;;;;;;1.75;1.65;;;9.60;99.90;;;;;;5094503;28;20059;-78
2023/10/13 03:04:08;;;;;;;9.25;2.22;;;9.50;99.90;;;;;;5094463;28;20024;-78
2023/10/13 03:06:35;;;;;;;1.80;1.60;;;9.50;99.90;;;;;;5093275;28;20024;-77
2023/10/13 03:09:15;;;;;;;2.95;1.30;;;9.40;99.90;;;;;;5093019;28;20476;-77
2023/10/13 03:11:48;;;;;;;7.75;2.35;;;9.40;99.90;;;;;;5094340;28;20111;-78
2023/10/13 03:14:25;;;;;;;2.55;1.50;;;9.30;99.90;;;;;;5094068;28;20052;-78
2023/10/13 03:17:14;;;;;;;2.75;1.95;;;9.30;99.90;;;;;;5092814;28;20426;-78
2023/10/13 03:19:49;;;;;;;;;;;9.20;99.90;;;;;;5093257;28;20031;-78
2023/10/13 03:22:16;;;;;;;1.45;1.35;;;9.10;99.90;;;;;;5090058;28;19904;-78
2023/10/13 03:24:46;;;;;;;2.17;2.05;;;9.10;99.90;;;;;;5077157;28;20048;-78
2023/10/13 03:27:22;;;;;;;5.25;1.92;;;9.10;99.90;;;;;;5056466;28;20107;-78
2023/10/13 03:29:54;;;;;;;5.50;1.73;;;9.20;99.90;;;;;;5074755;28;20100;-78
2023/10/13 03:32:20;;;;;;;2.30;1.90;;;9.10;99.90;;;;;;5074498;28;20112;-78
2023/10/13 03:34:53;;;;;;;2.85;1.60;;;9.00;99.90;;;;;;5056627;28;20066;-78
2023/10/13 03:37:37;;;;;;;3.53;1.75;;;8.90;99.90;;;;;;5075489;28;20042;-78
2023/10/13 03:40:33;;;;;;;3.35;1.95;;;8.90;99.90;;;;;;5057998;28;20024;-79
2023/10/13 03:43:04;;;;;;;7.43;2.72;;;8.80;99.90;;;;;;5075644;28;20473;-79
2023/10/13 03:45:37;;;;;;;5.38;1.77;;;8.80;99.90;;;;;;5075867;28;20021;-78
2023/10/13 03:48:08;;;;;;;2.70;1.45;;;8.80;99.90;;;;;;5075482;28;20032;-78
2023/10/13 03:50:57;;;;;;;3.03;1.95;;;8.80;99.90;;;;;;5076615;28;20021;-78
2023/10/13 03:53:25;;;;;;;2.33;1.88;;;8.90;99.90;;;;;;5075979;28;20017;-77
2023/10/13 03:56:07;;;;;;;5.53;1.83;;;8.90;99.90;;;;;;5058064;28;20086;-79
2023/10/13 03:58:34;;;;;;;3.28;1.77;;;8.80;99.90;;;;;;5076209;28;20108;-78
2023/10/13 04:01:00;;;;;;;3.15;1.75;;;8.80;99.90;;;;;;5057950;28;20546;-78
2023/10/13 04:03:38;;;;;;;3.78;2.67;;;8.80;99.90;;;;;;5074706;28;20453;-78
2023/10/13 04:06:08;;;;;;;4.15;2.50;;;8.80;99.90;;;;;;5073547;28;20052;-77
2023/10/13 04:21:55;;;;;;;4.63;2.00;;;8.90;99.90;;;;;;5074956;28;20024;-78
2023/10/13 04:24:54;;;;;;;3.08;1.67;;;8.80;99.90;;;;;;5074917;28;20124;-78
2023/10/13 04:27:25;;;;;;;2.55;1.88;;;8.70;99.90;;;;;;5074963;28;20476;-78
2023/10/13 04:30:10;;;;;;;4.45;1.55;;;8.70;99.90;;;;;;5074842;28;20025;-78
2023/10/13 04:32:46;;;;;;;4.10;2.25;;;8.60;99.90;;;;;;5075158;28;20023;-78
2023/10/13 04:38:01;;;;;;;3.13;1.92;;;8.60;99.90;;;;;;5074761;28;20101;-77
2023/10/13 04:40:35;;;;;;;2.15;1.67;;;8.60;99.90;;;;;;5056825;28;20496;-77
2023/10/13 04:43:32;;;;;;;3.40;1.98;;;8.40;99.90;;;;;;5056812;28;20111;-78
2023/10/13 04:45:55;;;;;;;8.02;2.75;;;8.40;99.90;;;;;;5074465;28;20040;-78
2023/10/13 04:51:18;;;;;;;4.68;2.70;;;8.30;99.90;;;;;;5075150;28;20025;-77
2023/10/13 05:04:38;;;;;;;4.97;2.08;;;8.10;99.90;;;;;;5022150;28;20471;-78
2023/10/13 05:45:39;;;;;;;3.90;2.15;;;8.10;99.90;;;;;;5077876;28;20036;-78
2023/10/13 05:48:24;;;;;;;5.97;2.58;;;8.20;99.90;;;;;;5058118;28;20056;-78
2023/10/13 05:50:57;;;;;;;5.28;2.28;;;8.30;99.90;;;;;;5058639;28;20388;-77
2023/10/13 06:28:56;;;;;;;3.53;2.15;;;8.80;99.90;;;;;;5075911;28;20521;-76
2023/10/13 06:31:21;;;;;;;13.43;2.33;;;8.90;99.90;;;;;;5075777;28;20020;-76
2023/10/13 06:33:48;;;;;;;2.80;2.10;;;9.00;99.90;;;;;;5074891;28;20393;-77
2023/10/13 06:36:13;;;;;;;10.00;1.88;;;8.90;99.90;;;;;;5074543;28;20029;-78
2023/10/13 06:38:39;;;;;;;4.88;1.80;;;9.00;99.90;;;;;;5057156;28;20024;-77
2023/10/13 06:41:06;;;;;;;2.53;2.28;;;9.10;99.90;;;;;;5074660;28;20028;-77
2023/10/13 06:43:43;;;;;;;3.70;2.08;;;9.20;99.90;;;;;;5074592;28;20043;-76
2023/10/13 06:46:23;;;;;;;15.50;2.45;;;9.30;99.90;;;;;;5056470;28;20024;-76
2023/10/13 06:48:53;;;;;;;2.35;1.77;;;9.40;99.90;;;;;;5074482;28;20023;-76
2023/10/13 06:51:26;;;;;;;1.85;1.75;;;9.50;99.90;;;;;;5074312;28;20423;-76
2023/10/13 06:53:56;;;;;;;8.65;1.90;;;9.60;99.90;;;;;;5056638;28;20027;-77
2023/10/13 06:56:26;;;;;;;6.30;1.85;;;9.80;99.90;;;;;;5074689;28;20469;-76
2023/10/13 06:58:59;;;;;;;4.45;2.13;;;9.90;99.90;;;;;;5074438;28;20025;-76
2023/10/13 07:01:27;;;;;;;2.97;1.52;;;10.10;99.90;;;;;;5056615;28;20031;-76
2023/10/13 07:03:53;;;;;;;5.22;1.85;;;10.20;99.90;;;;;;5074849;28;20116;-76
2023/10/13 07:06:22;;;;;;;3.20;2.42;;;10.40;99.90;;;;;;5074940;28;20480;-76
2023/10/13 07:08:55;;;;;;;5.00;2.87;;;10.50;99.90;;;;;;5075043;28;20563;-77
2023/10/13 07:11:33;;;;;;;2.60;1.85;;;10.60;99.90;;;;;;5056936;28;20120;-78
2023/10/13 07:14:09;;;;;;;2.97;2.03;;;10.80;99.90;;;;;;5075262;28;20028;-78
2023/10/13 07:16:36;;;;;;;2.70;1.50;;;10.90;99.90;;;;;;5057729;28;20366;-76
2023/10/13 07:19:05;;;;;;;3.65;1.60;;;11.10;99.90;;;;;;5075498;28;20070;-76
2023/10/13 07:21:33;;;;;;;7.22;2.55;;;11.30;99.90;;;;;;5075448;28;20085;-76
2023/10/13 07:24:08;;;;;;;1.85;1.48;;;11.50;99.90;;;;;;5074559;28;20044;-77
2023/10/13 07:26:34;;;;;;;4.07;1.88;;;11.70;99.90;;;;;;5075310;28;20016;-76
2023/10/13 07:29:00;;;;;;;4.43;2.35;;;11.80;99.90;;;;;;5057194;28;20090;-77
2023/10/13 07:31:27;;;;;;;6.10;2.15;;;11.90;99.90;;;;;;5075360;28;20469;-77
2023/10/13 07:34:05;;;;;;;3.63;2.08;;;12.00;99.90;;;;;;5076079;28;20106;-78
2023/10/13 07:36:39;;;;;;;3.35;1.85;;;12.30;99.90;;;;;;5075407;28;20033;-77
2023/10/13 07:39:24;;;;;;;4.18;2.03;;;12.40;99.90;;;;;;5075141;28;20024;-78
2023/10/13 07:41:54;;;;;;;6.07;2.00;;;12.50;99.90;;;;;;5058002;28;20031;-78
2023/10/13 07:44:28;;;;;;;5.95;2.50;;;12.70;99.90;;;;;;5074829;28;20013;-78
2023/10/13 07:47:02;;;;;;;10.88;1.52;;;12.90;99.90;;;;;;5075305;28;20139;-78
2023/10/13 07:49:36;;;;;;;3.75;1.63;;;13.10;99.90;;;;;;5076305;28;20020;-78
2023/10/13 07:55:10;;;;;;;3.63;2.05;;;13.50;99.90;;;;;;5074612;28;20109;-78
2023/10/13 07:57:55;;;;;;;5.22;1.70;;;13.60;99.90;;;;;;5073873;28;20028;-81
2023/10/13 08:03:31;;;;;;;8.07;1.95;;;14.10;99.90;;;;;;5073335;28;20036;-77
2023/10/13 08:06:06;;;;;;;3.20;2.25;;;14.40;99.90;;;;;;5055219;28;20025;-78
2023/10/13 08:08:38;;;;;;;8.88;2.40;;;14.60;99.90;;;;;;5073342;28;20043;-79
2023/10/13 08:11:11;;;;;;;6.82;2.35;;;14.90;99.90;;;;;;5055441;28;20108;-79
2023/10/13 08:13:38;;;;;;;4.15;1.98;;;15.10;99.90;;;;;;5073745;28;20021;-81
2023/10/13 08:16:09;;;;;;;2.55;1.60;;;15.30;99.90;;;;;;5073992;28;20447;-85
2023/10/13 08:18:36;;;;;;;3.92;1.63;;;15.50;99.90;;;;;;5055951;28;20074;-83
2023/10/13 08:21:05;;;;;;;6.43;1.98;;;15.70;99.90;;;;;;5073910;28;20480;-84
2023/10/13 08:23:57;;;;;;;5.10;1.85;;;15.90;99.90;;;;;;5073306;28;20143;-82
2023/10/13 08:34:39;;;;;;;6.15;2.17;;;16.40;99.90;;;;;;5074661;28;20047;-80
2023/10/13 08:37:28;;;;;;;5.90;1.83;;;16.40;99.90;;;;;;5078104;28;20028;-79
2023/10/13 08:45:20;;;;;;;5.28;1.58;;;17.00;99.90;;;;;;5077318;28;20035;-81
2023/10/13 08:48:08;;;;;;;6.90;2.30;;;17.00;99.90;;;;;;5077032;28;20028;-82
2023/10/13 08:50:52;;;;;;;3.67;2.10;;;17.10;99.90;;;;;;5085105;28;20473;-88
2023/10/13 08:56:32;;;;;;;3.65;1.58;;;17.50;99.90;;;;;;5076598;28;20054;-80
2023/10/13 09:17:53;;;;;;;4.40;2.13;;;18.20;99.90;;;;;;5076033;28;20031;-80
2023/10/13 09:20:35;;;;;;;5.10;1.80;;;18.30;99.90;;;;;;5058080;28;20029;-79
2023/10/13 09:23:08;;;;;;;5.32;2.30;;;18.40;99.90;;;;;;5058955;28;20048;-79
2023/10/13 09:25:36;;;;;;;4.63;2.00;;;18.50;99.70;;;;;;5058025;28;20021;-79
2023/10/13 09:28:21;;;;;;;9.02;3.25;;;18.60;99.40;;;;;;5057673;28;20024;-78
2023/10/13 09:30:52;;;;;;;4.93;1.92;;;18.70;99.30;;;;;;5075772;28;20025;-78
2023/10/13 09:33:36;;;;;;;5.68;2.10;;;18.80;99.40;;;;;;5059041;28;20070;-78
2023/10/13 09:36:07;;;;;;;3.90;1.77;;;19.00;99.30;;;;;;5085959;28;20033;-78
2023/10/13 09:38:34;;;;;;;6.45;2.55;;;19.10;99.30;;;;;;5068233;28;20021;-78
2023/10/13 09:41:17;;;;;;;5.93;2.67;;;19.10;99.50;;;;;;5067652;28;20028;-78
2023/10/13 09:43:44;;;;;;;5.43;1.83;;;19.20;98.80;;;;;;5062309;28;20431;-78
2023/10/13 09:46:17;;;;;;;2.30;1.83;;;19.30;98.30;;;;;;5077007;28;20056;-78
2023/10/13 09:48:49;;;;;;;4.82;1.60;;;19.40;98.20;;;;;;5062699;28;20351;-79
2023/10/13 09:51:19;;;;;;;4.90;2.45;;;19.60;97.40;;;;;;5085848;28;20209;-83
2023/10/13 09:54:09;;;;;;;5.72;2.33;;;19.70;96.90;;;;;;5067647;28;20020;-80
2023/10/13 09:56:57;;;;;;;5.78;2.60;;;19.80;96.40;;;;;;5082131;28;20081;-79
2023/10/13 09:59:34;;;;;;;4.18;1.95;;;19.90;96.20;;;;;;5078077;28;20016;-79
2023/10/13 10:02:08;;;;;;;8.77;2.15;;;20.20;95.30;;;;;;5075602;28;20043;-78
2023/10/13 10:04:51;;;;;;;5.47;2.20;;;20.30;95.30;;;;;;5076425;28;20480;-78
2023/10/13 10:07:29;;;;;;;6.40;2.22;;;20.40;94.80;;;;;;5057590;28;20035;-80
2023/10/13 10:09:59;;;;;;;7.43;2.78;;;20.60;94.10;;;;;;5075766;28;20546;-78
2023/10/13 10:12:47;;;;;;;4.28;1.85;;;20.70;93.20;;;;;;5075001;28;20059;-78
2023/10/13 10:15:33;;;;;;;4.60;2.25;;;20.80;92.90;;;;;;5060217;28;20095;-80
2023/10/13 10:18:00;;;;;;;6.72;2.40;;;20.90;92.10;;;;;;5057151;28;20393;-78
2023/10/13 10:20:44;;;;;;;2.35;2.00;;;21.00;91.50;;;;;;5057997;28;20031;-78
2023/10/13 10:23:21;;;;;;;3.83;2.03;;;21.10;91.00;;;;;;5064901;28;20081;-78
2023/10/13 10:25:51;;;;;;;2.45;1.98;;;21.30;90.50;;;;;;5093800;28;20028;-79
2023/10/13 10:28:19;;;;;;;7.18;2.67;;;21.40;90.20;;;;;;5093594;28;20024;-78
2023/10/13 10:30:44;;;;;;;3.25;2.30;;;21.60;87.80;;;;;;5096079;28;20024;-81
2023/10/13 10:33:18;;;;;;;5.47;2.28;;;21.70;87.20;;;;;;5102510;28;20105;-79
2023/10/13 10:35:58;;;;;;;2.58;1.90;;;21.80;83.90;;;;;;5098980;28;20032;-80
2023/10/13 10:38:34;;;;;;;1.77;1.50;;;21.90;84.70;;;;;;5100366;28;20215;-78
2023/10/13 10:41:04;;;;;;;5.38;2.15;;;22.00;84.20;;;;;;5103511;28;20036;-79
2023/10/13 10:43:47;;;;;;;8.38;2.35;;;22.10;84.60;;;;;;5098135;28;20119;-78
2023/10/13 10:46:27;;;;;;;4.13;1.70;;;22.20;84.40;;;;;;5097274;28;20021;-80
2023/10/13 10:49:00;;;;;;;6.90;2.88;;;22.30;83.30;;;;;;5095488;28;20070;-79
2023/10/13 10:51:43;;;;;;;4.55;2.05;;;22.50;83.10;;;;;;5094438;28;20020;-79
2023/10/13 10:54:18;;;;;;;4.75;2.35;;;22.60;81.60;;;;;;5093287;28;20028;-78
2023/10/13 10:56:52;;;;;;;5.15;1.77;;;22.70;83.90;;;;;;5094709;28;20027;-78
2023/10/13 10:59:19;;;;;;;5.18;2.92;;;22.90;80.60;;;;;;5094365;28;20020;-79
2023/10/13 11:01:50;;;;;;;4.50;2.45;;;23.00;79.60;;;;;;5093146;28;20032;-78
2023/10/13 11:07:00;;;;;;;4.28;1.90;;;23.30;78.50;;;;;;5094206;28;20027;-78
2023/10/13 11:09:45;;;;;;;6.38;1.75;;;23.40;76.70;;;;;;5092963;28;20073;-79
2023/10/13 11:12:22;;;;;;;8.50;1.90;;;23.60;76.10;;;;;;5094230;28;20028;-78
2023/10/13 11:14:51;;;;;;;6.32;2.00;;;23.60;74.30;;;;;;5092876;28;20024;-79
2023/10/13 11:17:24;;;;;;;3.67;1.73;;;23.80;74.50;;;;;;5092829;28;20110;-79
2023/10/13 11:19:50;;;;;;;4.13;1.75;;;23.90;74.40;;;;;;5093911;28;20531;-78
2023/10/13 11:22:41;;;;;;;6.55;2.58;;;24.00;73.10;;;;;;5092575;28;20063;-79
2023/10/13 11:25:11;;;;;;;6.22;2.20;;;24.10;73.00;;;;;;5093005;28;20055;-78
2023/10/13 11:30:20;;;;;;;6.77;2.10;;;24.30;73.80;;;;;;5094075;28;20016;-79
2023/10/13 11:32:59;;;;;;;5.63;2.15;;;24.50;74.00;;;;;;5092599;28;20292;-79
2023/10/13 11:35:25;;;;;;;4.50;1.98;;;24.70;73.80;;;;;;5092587;28;20399;-78
2023/10/13 11:38:03;;;;;;;3.50;1.88;;;24.80;74.40;;;;;;5093751;28;20099;-75
2023/10/13 11:40:59;;;;;;;2.05;1.85;;;24.80;72.60;;;;;;5092547;28;20054;-77
2023/10/13 11:43:26;;;;;;;10.25;2.20;;;25.00;72.10;;;;;;5093607;28;20024;-78
2023/10/13 11:46:55;;;;;;;5.10;1.95;;;25.20;72.50;;;;;;5093772;28;20047;-78
2023/10/13 11:48:46;;;;;;;3.78;2.30;;;25.20;72.20;;;;;;5087941;28;20028;-78
2023/10/13 11:51:23;;;;;;;6.95;1.63;;;25.40;72.80;;;;;;5093744;28;20028;-78
2023/10/13 11:53:53;;;;;;;2.80;1.80;;;25.50;71.70;;;;;;5092308;28;20024;-78
2023/10/13 11:56:21;;;;;;;3.50;1.75;;;25.60;71.10;;;;;;5093747;28;20025;-78
2023/10/13 11:58:48;;;;;;;5.00;2.15;;;25.70;71.90;;;;;;5092194;28;20051;-78
2023/10/13 12:11:42;;;;;;;5.22;2.22;;;26.30;67.70;;;;;;5099097;28;20066;-78
2023/10/13 12:17:04;;;;;;;5.15;1.60;;;27.00;67.80;;;;;;5077813;28;20102;-79
2023/10/13 12:19:30;;;;;;;4.93;1.80;;;28.10;65.60;;;;;;5096475;28;20111;-79
2023/10/13 12:22:04;;;;;;;7.47;1.80;;;30.40;61.60;;;;;;5096093;28;20028;-79
2023/10/13 12:27:01;;;;;;;2.22;1.40;;;33.30;56.10;;;;;;5097458;28;20081;-78
2023/10/13 12:29:30;;;;;;;3.97;1.45;;;34.70;54.50;;;;;;5098149;28;20020;-85
2023/10/13 12:32:11;;;;;;;2.10;1.60;;;35.80;52.10;;;;;;5103313;28;20483;-85
2023/10/13 12:54:35;;;;;;;3.00;1.60;;;35.00;47.30;;;;;;5096910;28;20428;-80
2023/10/13 12:56:56;;;;;;;4.25;1.20;;;35.20;45.80;;;;;;5094469;28;20169;-80
2023/10/13 12:59:26;;;;;;;5.47;1.33;;;35.40;44.10;;;;;;5095737;28;20020;-78
2023/10/13 13:01:53;;;;;;;5.07;1.50;;;36.20;44.10;;;;;;5095576;28;20069;-79
2023/10/13 13:04:22;;;;;;;1.40;1.17;;;36.40;43.80;;;;;;5095571;28;20051;-80
2023/10/13 13:06:49;;;;;;;3.80;1.45;;;36.70;43.10;;;;;;5095374;28;20043;-79
2023/10/13 13:09:15;;;;;;;4.10;1.63;;;36.40;43.70;;;;;;5095492;28;20476;-79
2023/10/13 13:11:41;;;;;;;1.92;1.60;;;36.30;43.80;;;;;;5095195;28;20032;-79
2023/10/13 13:14:07;;;;;;;1.58;1.42;;;35.80;44.50;;;;;;5095158;28;20353;-80
2023/10/13 13:16:34;;;;;;;3.20;2.10;;;36.50;43.70;;;;;;5096404;28;20029;-79
2023/10/13 13:19:09;;;;;;;1.95;1.40;;;37.40;41.30;;;;;;5095038;28;20020;-79
2023/10/13 13:21:36;;;;;;;3.10;1.77;;;37.50;42.60;;;;;;5093991;28;20058;-80
2023/10/13 13:24:04;;;;;;;3.90;1.48;;;38.30;42.20;;;;;;5095178;28;20078;-80
2023/10/13 13:26:31;;;;;;;1.40;1.30;;;38.50;40.50;;;;;;5096504;28;20024;-79
2023/10/13 13:28:57;;;;;;;3.53;1.52;;;38.30;40.70;;;;;;5094864;28;20384;-79
2023/10/13 13:31:26;;;;;;;1.60;1.50;;;38.10;40.40;;;;;;5094759;28;20036;-79
2023/10/13 13:33:52;;;;;;;3.92;1.90;;;37.10;41.10;;;;;;5096137;28;20020;-79
2023/10/13 13:36:19;;;;;;;2.92;1.40;;;37.40;42.00;;;;;;5106687;28;20016;-79
2023/10/13 13:38:46;;;;;;;2.88;1.50;;;38.20;41.30;;;;;;5105462;28;20082;-79
2023/10/13 13:41:16;;;;;;;5.72;2.08;;;38.00;40.40;;;;;;5106601;28;20273;-79
2023/10/13 13:43:55;;;;;;;2.45;1.75;;;37.80;40.80;;;;;;5109121;28;20023;-78
2023/10/13 13:46:27;;;;;;;1.40;1.30;;;37.80;41.30;;;;;;5105894;28;20055;-79
2023/10/13 13:49:06;;;;;;;3.85;1.83;;;37.90;41.10;;;;;;5106287;28;20089;-78
2023/10/13 13:51:33;;;;;;;3.00;1.42;;;36.80;40.70;;;;;;5104972;28;20026;-78
2023/10/13 13:53:59;;;;;;;2.72;1.30;;;37.40;41.40;;;;;;5101742;28;20024;-79
2023/10/13 13:56:28;;;;;;;1.77;1.17;;;37.80;40.90;;;;;;5099520;28;20024;-78
2023/10/13 13:58:58;;;;;;;5.30;1.77;;;38.40;40.80;;;;;;5097572;28;20024;-78
2023/10/13 14:01:29;;;;;;;8.85;1.30;;;38.40;40.90;;;;;;5096594;28;20020;-79
2023/10/13 14:04:02;;;;;;;1.67;1.30;;;38.60;41.30;;;;;;5095488;28;20103;-79
2023/10/13 14:06:28;;;;;;;3.05;2.20;;;38.10;39.60;;;;;;5095318;28;20357;-78
2023/10/13 14:08:56;;;;;;;1.90;1.27;;;37.20;40.20;;;;;;5095574;28;20031;-79
2023/10/13 14:14:12;;;;;;;1.42;1.27;;;37.60;40.80;;;;;;5095637;28;20495;-78
2023/10/13 14:16:47;;;;;;;3.33;1.67;;;37.70;41.20;;;;;;5094040;28;20020;-79
2023/10/13 14:19:28;;;;;;;3.38;1.83;;;37.10;41.90;;;;;;5095075;28;20012;-78
2023/10/13 14:21:57;;;;;;;1.92;1.33;;;37.30;41.10;;;;;;5093829;28;20092;-79
2023/10/13 14:24:27;;;;;;;1.85;1.40;;;37.20;41.50;;;;;;5080511;28;20045;-80
2023/10/13 14:26:55;;;;;;;7.63;1.90;;;37.80;40.90;;;;;;5056587;28;20377;-79
2023/10/13 14:29:20;;;;;;;2.42;1.20;;;38.10;41.10;;;;;;5075056;28;20088;-80
2023/10/13 14:31:48;;;;;;;1.50;1.00;;;38.00;40.30;;;;;;5075021;28;20052;-79
2023/10/13 14:34:17;;;;;;;1.95;0.98;;;37.70;40.50;;;;;;5056824;28;20017;-80
2023/10/13 14:36:48;;;;;;;;;;;35.80;38.20;;;;;;5057498;28;20039;-81
2023/10/13 14:39:14;;;;;;;3.13;1.33;;;34.80;39.90;;;;;;5057013;28;19905;-80
2023/10/13 14:41:40;;;;;;;9.05;2.03;;;34.50;40.10;;;;;;5074761;28;20070;-81
2023/10/13 14:44:06;;;;;;;4.35;1.70;;;34.20;40.70;;;;;;5074690;28;20020;-80
2023/10/13 14:46:38;;;;;;;1.98;1.02;;;34.00;40.80;;;;;;5074667;28;20037;-79
2023/10/13 14:49:04;;;;;;;3.15;1.42;;;33.80;40.00;;;;;;5074649;28;20486;-77
2023/10/13 14:51:31;;;;;;;1.85;1.70;;;32.80;40.50;;;;;;5074705;28;20104;-79
2023/10/13 14:53:59;;;;;;;3.42;0.90;;;32.80;41.80;;;;;;5074806;28;20025;-78
2023/10/13 14:56:26;;;;;;;6.68;1.50;;;32.60;40.90;;;;;;5056810;28;20408;-79
2023/10/13 14:58:53;;;;;;;1.00;0.90;;;32.60;41.20;;;;;;5056627;28;20032;-82
2023/10/13 15:01:22;;;;;;;4.25;1.50;;;32.20;40.70;;;;;;5077640;28;20024;-79
2023/10/13 15:03:50;;;;;;;2.97;1.10;;;32.30;41.50;;;;;;5078636;28;20491;-81
2023/10/13 15:06:21;;;;;;;1.25;1.05;;;31.70;39.70;;;;;;5056462;28;20041;-78
2023/10/13 15:08:48;;;;;;;1.85;0.95;;;31.40;40.40;;;;;;5056493;28;20024;-82
2023/10/13 15:11:14;;;;;;;5.90;0.93;;;31.40;40.60;;;;;;5074465;28;20025;-82
2023/10/13 15:13:40;;;;;;;7.45;1.20;;;31.30;40.70;;;;;;5056504;28;20036;-78
2023/10/13 15:16:35;;;;;;;2.88;1.15;;;31.20;39.30;;;;;;5056101;28;20028;-79
2023/10/13 15:19:03;;;;;;;5.25;1.70;;;30.80;40.00;;;;;;5071434;28;20108;-82
2023/10/13 15:21:36;;;;;;;2.83;1.23;;;30.70;40.10;;;;;;5056381;28;20031;-79
2023/10/13 15:24:16;;;;;;;3.65;1.02;;;30.70;39.40;;;;;;5073993;28;20052;-80
2023/10/13 15:26:48;;;;;;;1.38;1.02;;;30.40;39.40;;;;;;5074069;28;20025;-79
2023/10/13 15:29:18;;;;;;;2.90;1.48;;;30.20;40.80;;;;;;5056269;28;20020;-78
2023/10/13 15:34:26;;;;;;;4.22;1.30;;;29.60;40.20;;;;;;5074168;28;20477;-78
2023/10/13 15:36:54;;;;;;;4.20;1.08;;;29.40;41.90;;;;;;5073869;28;20078;-81
2023/10/13 15:39:24;;;;;;;1.65;1.02;;;29.10;40.80;;;;;;5056124;28;20035;-78
2023/10/13 15:41:53;;;;;;;4.60;1.13;;;28.80;40.60;;;;;;5073769;28;20031;-78
2023/10/13 15:44:24;;;;;;;3.53;1.27;;;28.40;40.90;;;;;;5073382;28;20461;-82
2023/10/13 15:46:53;;;;;;;1.85;1.10;;;28.20;41.40;;;;;;5056095;28;20040;-82
2023/10/13 15:49:19;;;;;;;;;;;28.10;41.70;;;;;;5056113;28;20031;-79
2023/10/13 15:51:44;;;;;;;1.90;1.20;;;27.90;41.30;;;;;;5055254;28;19904;-79
2023/10/13 15:54:16;;;;;;;2.85;0.95;;;27.70;42.40;;;;;;5073345;28;20074;-79
2023/10/13 15:56:43;;;;;;;2.38;1.10;;;27.30;42.30;;;;;;5055483;28;20120;-79
2023/10/13 15:59:10;;;;;;;2.25;0.70;;;26.90;43.30;;;;;;5055440;28;20021;-79
2023/10/13 16:01:38;;;;;;;2.58;1.48;;;26.50;43.70;;;;;;5073597;28;20158;-80
2023/10/13 16:04:10;;;;;;;4.20;1.60;;;26.20;44.20;;;;;;5055551;28;20111;-78
2023/10/13 16:06:46;;;;;;;3.13;1.00;;;26.00;44.30;;;;;;5055494;28;20036;-78
2023/10/13 16:09:22;;;;;;;2.08;0.65;;;26.00;45.00;;;;;;5055475;28;20473;-78
2023/10/13 16:11:49;;;;;;;2.05;1.27;;;25.70;44.70;;;;;;5073377;28;20047;-78
2023/10/13 16:14:15;;;;;;;5.45;1.85;;;25.40;45.10;;;;;;5055040;28;20495;-78
2023/10/13 16:16:46;;;;;;;2.97;1.52;;;25.20;45.60;;;;;;5073467;28;20024;-78
2023/10/13 16:19:14;;;;;;;7.35;1.52;;;25.00;46.00;;;;;;5055545;28;20023;-78
2023/10/13 16:21:39;;;;;;;3.13;1.75;;;24.90;45.50;;;;;;5073330;28;20384;-78
2023/10/13 16:24:10;;;;;;;3.30;0.82;;;24.70;45.80;;;;;;5075602;28;20044;-83
2023/10/13 16:26:37;;;;;;;2.13;0.90;;;24.70;47.50;;;;;;5093718;28;20365;-78
2023/10/13 16:29:03;;;;;;;2.80;0.98;;;24.50;46.40;;;;;;5092033;28;20141;-77